Time;durP1;ratioP1;P1;durP2;ratioP2;P2;SDS_P1;SDS_P2;PMS_P1;PMS_P2;Temp;Humidity;BMP_temperature;BMP_pressure;BME280_temperature;BME280_humidity;BME280_pressure;Samples;Min_cycle;Max_cycle;Signal;HPM_P1;HPM_P2
2022/12/29 00:01:52;;;;;;;0.50;0.50;;;;;;;4.22;100.00;98607.84;5064217;28;20025;-67
2022/12/29 00:04:18;;;;;;;0.50;0.50;;;;;;;4.22;100.00;98608.72;5064410;28;20020;-68
2022/12/29 00:06:44;;;;;;;0.50;0.50;;;;;;;4.22;100.00;98598.44;5064083;28;20025;-68
2022/12/29 00:09:12;;;;;;;0.50;0.50;;;;;;;4.23;100.00;98596.72;5064041;28;20020;-67
2022/12/29 00:11:38;;;;;;;0.50;0.50;;;;;;;4.20;100.00;98592.47;5064299;28;20025;-67
2022/12/29 00:16:48;;;;;;;0.50;0.50;;;;;;;4.26;100.00;98575.28;5064030;28;20536;-67
2022/12/29 00:36:07;;;;;;;0.60;0.60;;;;;;;4.30;100.00;98553.81;5064059;28;20059;-67
2022/12/29 00:44:06;;;;;;;0.50;0.50;;;;;;;4.31;100.00;98555.53;5064170;28;20036;-67
2022/12/29 00:46:38;;;;;;;0.50;0.50;;;;;;;4.35;100.00;98546.91;5063634;28;20032;-67
2022/12/29 00:51:50;;;;;;;0.60;0.60;;;;;;;4.37;100.00;98536.59;5063760;28;20032;-66
2022/12/29 00:54:17;;;;;;;0.50;0.50;;;;;;;4.39;100.00;98538.31;5062462;28;20488;-67
2022/12/29 00:56:42;;;;;;;0.50;0.50;;;;;;;4.42;100.00;98543.41;5063809;28;20029;-68
2022/12/29 00:59:09;;;;;;;0.50;0.50;;;;;;;4.42;100.00;98527.97;5063912;28;20035;-67
2022/12/29 01:01:36;;;;;;;0.40;0.40;;;;;;;4.47;100.00;98530.50;5063561;28;20061;-67
2022/12/29 01:04:02;;;;;;;0.50;0.50;;;;;;;4.45;100.00;98516.81;5067275;28;20035;-68
2022/12/29 01:06:27;;;;;;;0.50;0.50;;;;;;;4.50;100.00;98512.47;5067854;28;20017;-68
2022/12/29 01:11:38;;;;;;;0.50;0.50;;;;;;;4.59;100.00;98509.75;5067377;28;20032;-69
2022/12/29 01:14:04;;;;;;;0.50;0.50;;;;;;;4.67;100.00;98504.50;5067448;28;20044;-67
2022/12/29 01:16:30;;;;;;;0.50;0.50;;;;;;;4.68;100.00;98500.22;5067258;28;20097;-67
2022/12/29 01:18:55;;;;;;;0.50;0.50;;;;;;;4.78;100.00;98491.47;5066087;28;20096;-68
2022/12/29 01:21:21;;;;;;;0.50;0.50;;;;;;;4.78;100.00;98488.03;5067501;28;20514;-68
2022/12/29 01:23:46;;;;;;;0.50;0.50;;;;;;;4.86;100.00;98493.09;5067219;28;20051;-67
2022/12/29 01:26:15;;;;;;;0.50;0.50;;;;;;;4.93;100.00;98477.53;5067206;28;20461;-67
2022/12/29 01:28:41;;;;;;;0.50;0.50;;;;;;;4.99;100.00;98483.41;5067012;28;20029;-66
2022/12/29 01:31:12;;;;;;;0.50;0.50;;;;;;;5.04;100.00;98484.19;5065359;28;20029;-68
2022/12/29 01:33:37;;;;;;;0.50;0.50;;;;;;;5.08;100.00;98468.69;5067179;28;20029;-68
2022/12/29 01:36:05;;;;;;;0.40;0.40;;;;;;;5.13;100.00;98470.34;5067008;28;20024;-68
2022/12/29 01:38:31;;;;;;;0.50;0.50;;;;;;;5.17;100.00;98459.13;5065711;28;20051;-67
2022/12/29 01:40:56;;;;;;;0.50;0.50;;;;;;;5.20;100.00;98449.63;5066889;28;20049;-68
2022/12/29 01:43:38;;;;;;;0.50;0.50;;;;;;;5.24;100.00;98460.69;5067037;28;20025;-68
2022/12/29 01:46:03;;;;;;;0.50;0.50;;;;;;;5.35;100.00;98444.22;5065598;28;20358;-67
2022/12/29 01:48:29;;;;;;;0.43;0.43;;;;;;;5.46;100.00;98443.13;5066869;28;20104;-67
2022/12/29 01:50:55;;;;;;;0.60;0.60;;;;;;;5.35;100.00;98426.22;5066708;28;20124;-68
2022/12/29 01:53:32;;;;;;;0.50;0.50;;;;;;;5.39;100.00;98423.56;5066619;28;20084;-69
2022/12/29 01:56:04;;;;;;;0.40;0.40;;;;;;;5.43;100.00;98420.03;5066709;28;20021;-67
2022/12/29 01:58:33;;;;;;;0.45;0.45;;;;;;;5.65;100.00;98411.03;5066704;28;20036;-67
2022/12/29 02:00:59;;;;;;;0.50;0.50;;;;;;;5.49;100.00;98419.06;5066380;28;20040;-68
2022/12/29 02:03:28;;;;;;;0.50;0.50;;;;;;;5.48;100.00;98413.97;5066748;28;20021;-68
2022/12/29 02:06:00;;;;;;;0.50;0.50;;;;;;;5.45;100.00;98396.84;5066503;28;20021;-69
2022/12/29 02:08:28;;;;;;;0.50;0.50;;;;;;;5.51;100.00;98394.13;5065258;28;20044;-69
2022/12/29 02:10:56;;;;;;;0.50;0.50;;;;;;;5.48;100.00;98391.63;5066237;28;20100;-69
2022/12/29 02:13:24;;;;;;;0.40;0.40;;;;;;;5.48;100.00;98396.78;5064534;28;20476;-68
2022/12/29 02:15:50;;;;;;;0.40;0.40;;;;;;;5.49;100.00;98387.34;5065659;28;20025;-68
2022/12/29 02:18:29;;;;;;;0.40;0.40;;;;;;;5.62;100.00;98378.50;5066411;28;20074;-67
2022/12/29 02:21:36;;;;;;;0.50;0.50;;;;;;;5.56;100.00;98371.72;5064517;28;20017;-68
2022/12/29 02:24:38;;;;;;;0.50;0.50;;;;;;;5.57;100.00;98364.88;5064853;28;20032;-68
2022/12/29 02:27:36;;;;;;;0.50;0.50;;;;;;;5.44;100.00;98347.09;5066203;28;20048;-67
2022/12/29 02:30:01;;;;;;;1.52;1.45;;;;;;;5.67;100.00;98340.59;5065894;28;20028;-67
2022/12/29 02:32:45;;;;;;;0.50;0.50;;;;;;;5.54;100.00;98344.34;5066219;28;20029;-68
2022/12/29 02:35:23;;;;;;;0.50;0.50;;;;;;;5.46;100.00;98340.19;5065777;28;20085;-68
2022/12/29 02:37:59;;;;;;;0.50;0.50;;;;;;;5.42;100.00;98336.00;5065860;28;20253;-67
2022/12/29 02:40:34;;;;;;;0.47;0.47;;;;;;;5.44;100.00;98328.25;5065833;28;20032;-68
2022/12/29 02:43:02;;;;;;;0.50;0.50;;;;;;;5.46;100.00;98326.50;5065966;28;20021;-68
2022/12/29 02:45:36;;;;;;;0.50;0.50;;;;;;;5.39;100.00;98323.19;5064041;28;20055;-68
2022/12/29 02:48:08;;;;;;;0.50;0.50;;;;;;;5.38;100.00;98318.06;5064350;28;20037;-67
2022/12/29 02:50:43;;;;;;;0.50;0.50;;;;;;;5.33;100.00;98310.44;5065681;28;20021;-67
2022/12/29 02:53:13;;;;;;;0.50;0.50;;;;;;;5.37;100.00;98317.22;5064575;28;20116;-67
2022/12/29 02:55:40;;;;;;;0.50;0.50;;;;;;;5.36;100.00;98305.25;5065582;28;20033;-67
2022/12/29 02:58:16;;;;;;;0.50;0.50;;;;;;;5.45;100.00;98302.47;5065454;28;20020;-67
2022/12/29 03:01:02;;;;;;;0.45;0.45;;;;;;;5.36;100.00;98294.09;5065309;28;20309;-68
2022/12/29 03:03:49;;;;;;;0.52;0.52;;;;;;;5.36;100.00;98289.81;5053972;28;20562;-69
2022/12/29 03:06:29;;;;;;;0.50;0.50;;;;;;;5.32;100.00;98283.88;5064102;28;20139;-70
2022/12/29 03:09:05;;;;;;;0.50;0.50;;;;;;;5.37;100.00;98290.66;5065604;28;20021;-68
2022/12/29 03:17:54;;;;;;;0.70;0.70;;;;;;;5.38;100.00;98272.63;5065490;28;20040;-67
2022/12/29 03:20:45;;;;;;;0.50;0.50;;;;;;;5.35;100.00;98249.53;5063907;28;20017;-67
2022/12/29 03:23:13;;;;;;;0.50;0.50;;;;;;;5.36;100.00;98264.06;5065347;28;20025;-67
2022/12/29 03:25:44;;;;;;;0.50;0.50;;;;;;;5.35;100.00;98259.81;5063509;28;20100;-67
2022/12/29 03:28:34;;;;;;;0.60;0.60;;;;;;;5.33;100.00;98243.56;5063869;28;20025;-67
2022/12/29 03:31:03;;;;;;;0.45;0.45;;;;;;;5.38;100.00;98246.03;5064774;28;20032;-67
2022/12/29 03:33:30;;;;;;;0.50;0.50;;;;;;;5.39;100.00;98237.41;5064942;28;20463;-68
2022/12/29 03:36:01;;;;;;;0.50;0.50;;;;;;;5.36;100.00;98228.03;5064801;28;20017;-67
2022/12/29 03:38:39;;;;;;;0.47;0.47;;;;;;;5.40;100.00;98232.22;5063683;28;20059;-67
2022/12/29 03:41:10;;;;;;;0.40;0.40;;;;;;;5.36;100.00;98238.34;5064654;28;20099;-68
2022/12/29 03:43:36;;;;;;;0.50;0.50;;;;;;;5.33;100.00;98199.81;5064809;28;20052;-65
2022/12/29 03:46:01;;;;;;;0.47;0.47;;;;;;;5.39;100.00;98217.69;5064512;28;20017;-68
2022/12/29 03:48:27;;;;;;;0.50;0.50;;;;;;;5.41;100.00;98215.06;5064440;28;20074;-67
2022/12/29 03:50:52;;;;;;;0.50;0.50;;;;;;;5.37;100.00;98195.44;5063219;28;20021;-70
2022/12/29 03:53:18;;;;;;;0.40;0.40;;;;;;;5.43;100.00;98211.56;5064631;28;20025;-68
2022/12/29 03:55:43;;;;;;;0.50;0.50;;;;;;;5.49;100.00;98202.03;5064274;28;20017;-69
2022/12/29 03:58:08;;;;;;;0.40;0.40;;;;;;;5.51;100.00;98205.41;5064423;28;20029;-68
2022/12/29 04:00:34;;;;;;;0.40;0.40;;;;;;;5.41;100.00;98205.63;5064120;28;20017;-69
2022/12/29 04:02:59;;;;;;;0.47;0.47;;;;;;;5.44;100.00;98197.00;5064523;28;20021;-68
2022/12/29 04:05:24;;;;;;;0.50;0.50;;;;;;;5.42;100.00;98198.75;5064340;28;20021;-68
2022/12/29 04:07:50;;;;;;;0.40;0.40;;;;;;;5.59;100.00;98185.50;5064406;28;20530;-68
2022/12/29 04:10:15;;;;;;;0.50;0.50;;;;;;;5.52;100.00;98176.22;5064423;28;20025;-69
2022/12/29 04:12:41;;;;;;;0.50;0.50;;;;;;;5.42;100.00;98173.00;5063223;28;20029;-68
2022/12/29 04:15:08;;;;;;;0.45;0.45;;;;;;;5.50;100.00;98154.81;5062788;28;20025;-68
2022/12/29 04:17:33;;;;;;;0.50;0.50;;;;;;;5.46;100.00;98170.31;5064331;28;20024;-67
2022/12/29 04:22:43;;;;;;;0.50;0.50;;;;;;;5.42;100.00;98160.13;5064337;28;20035;-68
2022/12/29 04:25:09;;;;;;;0.47;0.47;;;;;;;5.40;100.00;98151.63;5064373;28;20025;-67
2022/12/29 04:27:34;;;;;;;0.40;0.40;;;;;;;5.36;100.00;98160.28;5064093;28;20556;-68
2022/12/29 04:30:00;;;;;;;0.50;0.50;;;;;;;5.39;100.00;98166.22;5064067;28;20045;-68
2022/12/29 04:32:25;;;;;;;0.50;0.50;;;;;;;5.29;100.00;98136.41;5064219;28;20032;-68
2022/12/29 04:34:50;;;;;;;0.40;0.40;;;;;;;5.37;100.00;98151.72;5063945;28;20017;-68
2022/12/29 04:37:16;;;;;;;0.50;0.50;;;;;;;5.40;100.00;98147.31;5063238;28;20027;-67
2022/12/29 04:39:41;;;;;;;0.50;0.50;;;;;;;5.36;100.00;98137.97;5068102;28;20021;-67
2022/12/29 04:42:06;;;;;;;0.50;0.50;;;;;;;5.41;100.00;98143.88;5068147;28;20029;-66
2022/12/29 04:44:32;;;;;;;0.50;0.50;;;;;;;5.38;100.00;98158.53;5068185;28;20100;-66
2022/12/29 04:46:57;;;;;;;0.50;0.50;;;;;;;5.43;100.00;98115.53;5068038;28;20523;-67
2022/12/29 04:49:23;;;;;;;0.50;0.50;;;;;;;5.31;100.00;98121.81;5067782;28;20047;-67
2022/12/29 04:51:48;;;;;;;0.50;0.50;;;;;;;5.44;100.00;98150.66;5067952;28;20025;-67
2022/12/29 04:54:13;;;;;;;0.50;0.50;;;;;;;5.44;100.00;98138.66;5067923;28;20036;-67
2022/12/29 04:56:39;;;;;;;0.40;0.40;;;;;;;5.45;100.00;98145.47;5067867;28;20025;-68
2022/12/29 04:59:05;;;;;;;0.50;0.50;;;;;;;5.53;100.00;98136.72;5067899;28;20120;-68
2022/12/29 05:01:30;;;;;;;0.47;0.47;;;;;;;5.46;100.00;98133.47;5067474;28;20032;-68
2022/12/29 05:03:55;;;;;;;0.47;0.47;;;;;;;5.52;100.00;98138.47;5067931;28;20036;-69
2022/12/29 05:06:21;;;;;;;0.50;0.50;;;;;;;5.46;100.00;98116.28;5067689;28;20017;-67
2022/12/29 05:08:46;;;;;;;0.50;0.50;;;;;;;5.51;100.00;98121.31;5068055;28;20151;-67
2022/12/29 05:11:11;;;;;;;0.50;0.50;;;;;;;5.53;100.00;98118.69;5072827;28;20020;-68
2022/12/29 05:13:37;;;;;;;0.50;0.50;;;;;;;5.51;100.00;98116.16;5072044;28;20025;-69
2022/12/29 05:16:02;;;;;;;0.50;0.50;;;;;;;5.57;100.00;98117.75;5067388;28;20024;-69
2022/12/29 05:18:28;;;;;;;0.50;0.50;;;;;;;5.58;100.00;98109.16;5067597;28;20104;-68
2022/12/29 05:20:53;;;;;;;0.50;0.50;;;;;;;5.62;100.00;98115.91;5067226;28;20025;-69
2022/12/29 05:23:20;;;;;;;0.50;0.50;;;;;;;5.68;100.00;98117.47;5066031;28;20033;-71
2022/12/29 05:25:45;;;;;;;0.50;0.50;;;;;;;5.63;100.00;98097.00;5067257;28;20021;-68
2022/12/29 05:28:12;;;;;;;0.50;0.50;;;;;;;5.73;100.00;98105.34;5067651;28;20031;-70
2022/12/29 05:30:37;;;;;;;0.50;0.50;;;;;;;5.75;100.00;98113.03;5066934;28;20060;-68
2022/12/29 05:33:03;;;;;;;0.40;0.40;;;;;;;5.74;100.00;98101.03;5067037;28;20049;-69
2022/12/29 05:35:28;;;;;;;0.40;0.40;;;;;;;5.74;100.00;98099.31;5066914;28;20049;-68
2022/12/29 05:37:53;;;;;;;0.50;0.50;;;;;;;5.77;100.00;98109.53;5067159;28;20067;-67
2022/12/29 05:40:19;;;;;;;0.50;0.50;;;;;;;5.67;100.00;98079.75;5066943;28;20032;-67
2022/12/29 05:42:44;;;;;;;0.43;0.43;;;;;;;5.69;100.00;98089.13;5066776;28;20099;-69
2022/12/29 05:45:10;;;;;;;0.50;0.50;;;;;;;5.76;100.00;98088.97;5066879;28;20029;-68
2022/12/29 05:47:35;;;;;;;0.50;0.50;;;;;;;5.79;100.00;98081.16;5065564;28;20032;-68
2022/12/29 05:50:01;;;;;;;0.70;0.70;;;;;;;5.84;100.00;98084.47;5066254;28;20053;-67
2022/12/29 05:52:27;;;;;;;0.50;0.50;;;;;;;5.83;100.00;98086.19;5065547;28;20021;-69
2022/12/29 05:54:52;;;;;;;0.50;0.50;;;;;;;5.86;100.00;98085.28;5066835;28;20036;-68
2022/12/29 05:57:17;;;;;;;0.50;0.50;;;;;;;5.92;100.00;98082.53;5066836;28;20029;-68
2022/12/29 05:59:43;;;;;;;0.50;0.50;;;;;;;5.94;100.00;98083.31;5066781;28;20401;-70
2022/12/29 06:02:09;;;;;;;0.50;0.50;;;;;;;5.95;100.00;98082.44;5066485;28;20025;-68
2022/12/29 06:04:35;;;;;;;0.50;0.50;;;;;;;5.92;100.00;98082.53;5066706;28;20028;-69
2022/12/29 06:07:00;;;;;;;0.50;0.50;;;;;;;6.02;100.00;98074.56;5065360;28;20037;-69
2022/12/29 06:09:25;;;;;;;0.43;0.43;;;;;;;6.02;100.00;98064.25;5065106;28;20028;-69
2022/12/29 06:11:51;;;;;;;0.50;0.50;;;;;;;6.07;100.00;98075.31;5066418;28;20029;-68
2022/12/29 06:14:16;;;;;;;0.50;0.50;;;;;;;6.12;100.00;98068.28;5065161;28;20025;-68
2022/12/29 06:16:42;;;;;;;0.57;0.57;;;;;;;6.15;100.00;98060.47;5066312;28;20024;-69
2022/12/29 06:19:07;;;;;;;0.50;0.50;;;;;;;6.18;100.00;98052.63;5066354;28;20100;-69
2022/12/29 06:21:32;;;;;;;0.50;0.50;;;;;;;6.26;100.00;98056.75;5066392;28;20021;-68
2022/12/29 06:23:58;;;;;;;0.40;0.40;;;;;;;6.24;100.00;98031.03;5066250;28;20076;-67
2022/12/29 06:26:23;;;;;;;0.50;0.50;;;;;;;6.33;100.00;98040.22;5066314;28;20099;-68
2022/12/29 06:28:49;;;;;;;0.40;0.40;;;;;;;6.30;100.00;98041.16;5066276;28;20033;-68
2022/12/29 06:31:14;;;;;;;0.50;0.50;;;;;;;6.35;100.00;98032.44;5065775;28;20025;-68
2022/12/29 06:33:40;;;;;;;0.50;0.50;;;;;;;6.36;100.00;98031.56;5066114;28;20115;-69
2022/12/29 06:36:05;;;;;;;0.40;0.40;;;;;;;6.35;100.00;98033.28;5065799;28;20449;-69
2022/12/29 06:38:31;;;;;;;0.50;0.50;;;;;;;6.37;100.00;98030.66;5065774;28;20025;-67
2022/12/29 06:40:56;;;;;;;0.50;0.50;;;;;;;6.35;100.00;98028.13;5065688;28;20048;-66
2022/12/29 06:43:22;;;;;;;0.50;0.50;;;;;;;6.34;100.00;98021.28;5065335;28;20033;-67
2022/12/29 06:45:47;;;;;;;0.93;0.93;;;;;;;6.38;100.00;98019.44;5063748;28;20112;-69
2022/12/29 06:48:13;;;;;;;0.50;0.50;;;;;;;6.37;100.00;98020.34;5065650;28;20037;-67
2022/12/29 06:50:38;;;;;;;0.50;0.50;;;;;;;6.40;100.00;98018.53;5065620;28;20047;-67
2022/12/29 06:53:04;;;;;;;0.50;0.50;;;;;;;6.39;100.00;98014.25;5065704;28;20048;-67
2022/12/29 06:55:29;;;;;;;0.50;0.50;;;;;;;6.42;100.00;98018.50;5065557;28;20032;-66
2022/12/29 06:57:56;;;;;;;0.40;0.40;;;;;;;6.42;100.00;98009.00;5065562;28;20027;-68
2022/12/29 07:00:22;;;;;;;0.47;0.47;;;;;;;6.47;100.00;98015.78;5064517;28;20039;-66
2022/12/29 07:02:47;;;;;;;0.50;0.50;;;;;;;6.45;100.00;98000.34;5065548;28;20092;-67
2022/12/29 07:05:13;;;;;;;0.40;0.40;;;;;;;6.47;100.00;98011.44;5064204;28;20051;-66
2022/12/29 07:07:39;;;;;;;0.40;0.40;;;;;;;6.48;100.00;98007.13;5065447;28;20085;-66
2022/12/29 07:10:04;;;;;;;0.50;0.50;;;;;;;6.42;100.00;97988.38;5065111;28;20454;-67
2022/12/29 07:12:30;;;;;;;0.40;0.40;;;;;;;6.46;100.00;98002.03;5063946;28;20095;-67
2022/12/29 07:14:55;;;;;;;0.50;0.50;;;;;;;6.45;100.00;98001.19;5063959;28;20169;-66
2022/12/29 07:17:21;;;;;;;0.50;0.50;;;;;;;6.40;100.00;98000.50;5064054;28;20021;-66
2022/12/29 07:19:46;;;;;;;0.50;0.50;;;;;;;6.40;100.00;98003.06;5063777;28;20021;-67
2022/12/29 07:22:11;;;;;;;0.50;0.50;;;;;;;6.40;100.00;97992.75;5064967;28;20020;-67
2022/12/29 07:24:37;;;;;;;0.40;0.40;;;;;;;6.38;100.00;97975.63;5065035;28;20456;-67
2022/12/29 07:27:03;;;;;;;0.50;0.50;;;;;;;6.40;100.00;97979.03;5065008;28;20029;-66
2022/12/29 07:29:28;;;;;;;0.50;0.50;;;;;;;6.38;100.00;97985.94;5065100;28;20463;-66
2022/12/29 07:31:54;;;;;;;0.50;0.50;;;;;;;6.35;100.00;97986.03;5064797;28;20033;-68
2022/12/29 07:34:19;;;;;;;0.40;0.40;;;;;;;6.37;100.00;97999.72;5064834;28;20036;-66
2022/12/29 07:36:44;;;;;;;0.40;0.40;;;;;;;6.28;100.00;97986.22;5064841;28;20035;-66
2022/12/29 07:39:11;;;;;;;0.40;0.40;;;;;;;6.32;100.00;97999.88;5064722;28;20049;-66
2022/12/29 07:41:37;;;;;;;0.50;0.50;;;;;;;6.31;100.00;97988.72;5063503;28;20021;-66
2022/12/29 07:44:02;;;;;;;0.50;0.50;;;;;;;6.28;100.00;97990.53;5063525;28;20028;-66
2022/12/29 07:46:28;;;;;;;0.50;0.50;;;;;;;6.19;100.00;97977.06;5064704;28;20047;-66
2022/12/29 07:48:53;;;;;;;0.50;0.50;;;;;;;6.18;100.00;97977.94;5064656;28;20109;-65
2022/12/29 07:51:18;;;;;;;0.50;0.50;;;;;;;6.23;100.00;98002.72;5064670;28;20086;-66
2022/12/29 07:53:44;;;;;;;0.40;0.40;;;;;;;6.17;100.00;97978.81;5064641;28;20024;-66
2022/12/29 07:56:09;;;;;;;0.40;0.40;;;;;;;6.20;100.00;97986.47;5064592;28;20017;-67
2022/12/29 07:58:35;;;;;;;0.50;0.50;;;;;;;6.12;100.00;97967.81;5064770;28;20092;-67
2022/12/29 08:01:00;;;;;;;0.47;0.47;;;;;;;6.18;100.00;97988.22;5064276;28;20025;-68
2022/12/29 08:03:25;;;;;;;0.50;0.50;;;;;;;6.18;100.00;97993.38;5064579;28;20024;-67
2022/12/29 08:05:51;;;;;;;0.50;0.50;;;;;;;6.22;100.00;97986.41;5064311;28;20048;-67
2022/12/29 08:08:16;;;;;;;0.50;0.50;;;;;;;6.19;100.00;97997.66;5064701;28;20080;-67
2022/12/29 08:10:42;;;;;;;0.50;0.50;;;;;;;6.22;100.00;97996.72;5064298;28;20044;-66
2022/12/29 08:13:08;;;;;;;0.40;0.40;;;;;;;6.22;100.00;97995.88;5064349;28;20072;-67
2022/12/29 08:15:34;;;;;;;0.50;0.50;;;;;;;6.14;100.00;97986.66;5064271;28;20025;-66
2022/12/29 08:17:59;;;;;;;0.40;0.40;;;;;;;6.13;100.00;97978.97;5064305;28;20063;-68
2022/12/29 08:20:24;;;;;;;0.50;0.50;;;;;;;6.18;100.00;97980.50;5064177;28;20051;-66
2022/12/29 08:22:51;;;;;;;0.40;0.40;;;;;;;6.20;100.00;97994.19;5064337;28;20358;-68
2022/12/29 08:25:16;;;;;;;0.50;0.50;;;;;;;6.22;100.00;97991.56;5064272;28;20066;-68
2022/12/29 08:27:42;;;;;;;0.50;0.50;;;;;;;6.18;100.00;97972.78;5064228;28;20257;-67
2022/12/29 08:30:08;;;;;;;0.40;0.40;;;;;;;6.14;100.00;97984.06;5063990;28;20017;-68
2022/12/29 08:32:34;;;;;;;0.40;0.40;;;;;;;6.24;100.00;97988.94;5064246;28;20123;-66
2022/12/29 08:34:59;;;;;;;0.50;0.50;;;;;;;6.33;100.00;97993.81;5064114;28;20477;-66
2022/12/29 08:37:24;;;;;;;0.45;0.45;;;;;;;6.36;100.00;97993.72;5064153;28;20055;-68
2022/12/29 08:39:50;;;;;;;0.43;0.43;;;;;;;6.41;100.00;97996.16;5064107;28;20040;-67
2022/12/29 08:42:15;;;;;;;0.50;0.50;;;;;;;6.42;100.00;97988.38;5064032;28;20024;-68
2022/12/29 08:44:41;;;;;;;0.40;0.40;;;;;;;6.41;100.00;97980.69;5062825;28;20040;-67
2022/12/29 08:47:06;;;;;;;0.40;0.40;;;;;;;6.42;100.00;97983.22;5063756;28;20035;-68
2022/12/29 08:49:33;;;;;;;0.40;0.40;;;;;;;6.47;100.00;97975.34;5063683;28;20114;-68
2022/12/29 08:51:59;;;;;;;0.50;0.50;;;;;;;6.48;100.00;97979.63;5062503;28;20045;-67
2022/12/29 08:54:25;;;;;;;0.40;0.40;;;;;;;6.52;100.00;97976.06;5063903;28;20017;-68
2022/12/29 08:56:50;;;;;;;0.40;0.40;;;;;;;6.53;100.00;97971.75;5063885;28;20025;-68
2022/12/29 08:59:15;;;;;;;0.50;0.50;;;;;;;6.55;100.00;97970.00;5063894;28;20021;-69
2022/12/29 09:01:41;;;;;;;0.40;0.40;;;;;;;6.59;100.00;97979.31;5063564;28;20017;-68
2022/12/29 09:04:07;;;;;;;0.40;0.40;;;;;;;6.52;100.00;97970.91;5063837;28;20021;-68
2022/12/29 09:06:32;;;;;;;0.40;0.40;;;;;;;6.63;100.00;97986.03;5062431;28;20040;-68
2022/12/29 09:08:58;;;;;;;0.43;0.43;;;;;;;6.62;100.00;97968.88;5062507;28;20017;-67
2022/12/29 09:11:24;;;;;;;0.40;0.40;;;;;;;6.64;100.00;97966.25;5063717;28;20024;-68
2022/12/29 09:13:51;;;;;;;0.50;0.50;;;;;;;6.61;100.00;97987.84;5063676;28;20048;-67
2022/12/29 09:16:17;;;;;;;0.40;0.40;;;;;;;6.62;100.00;97983.50;5063405;28;20084;-68
2022/12/29 09:18:43;;;;;;;0.40;0.40;;;;;;;6.61;100.00;97967.22;5063648;28;20028;-65
2022/12/29 09:21:10;;;;;;;0.40;0.40;;;;;;;6.65;100.00;97971.38;5063541;28;20246;-67
2022/12/29 09:23:35;;;;;;;0.50;0.50;;;;;;;6.63;100.00;97962.81;5064725;28;20489;-67
2022/12/29 09:26:01;;;;;;;0.40;0.40;;;;;;;6.68;100.00;97971.28;5067301;28;20024;-67
2022/12/29 09:28:28;;;;;;;0.80;0.80;;;;;;;6.69;100.00;97970.38;5067445;28;20025;-67
2022/12/29 09:30:54;;;;;;;0.50;0.50;;;;;;;6.73;100.00;97970.25;5067140;28;20445;-68
2022/12/29 09:33:20;;;;;;;0.43;0.43;;;;;;;6.72;100.00;97955.69;5067180;28;20033;-67
2022/12/29 09:35:51;;;;;;;0.50;0.50;;;;;;;6.79;100.00;97957.16;5067045;28;20496;-67
2022/12/29 09:38:17;;;;;;;0.60;0.60;;;;;;;6.81;100.00;97971.72;5067286;28;20029;-67
2022/12/29 09:40:45;;;;;;;0.40;0.40;;;;;;;6.80;100.00;97946.84;5067028;28;20063;-66
2022/12/29 09:43:30;;;;;;;0.50;0.50;;;;;;;6.86;100.00;97969.00;5065532;28;20024;-66
2022/12/29 09:46:04;;;;;;;0.40;0.40;;;;;;;6.86;100.00;97955.25;5066933;28;20027;-65
2022/12/29 09:48:35;;;;;;;0.50;0.50;;;;;;;6.87;100.00;97946.63;5066932;28;20056;-67
2022/12/29 09:51:08;;;;;;;0.45;0.45;;;;;;;6.86;100.00;97974.16;5066904;28;20020;-67
2022/12/29 09:53:41;;;;;;;0.50;0.50;;;;;;;6.81;100.00;97964.00;5067010;28;20076;-68
2022/12/29 09:56:14;;;;;;;0.45;0.45;;;;;;;6.80;100.00;97962.31;5066780;28;20029;-68
2022/12/29 09:58:59;;;;;;;0.50;0.50;;;;;;;6.76;100.00;97957.28;5066901;28;20056;-67
2022/12/29 10:01:33;;;;;;;0.50;0.50;;;;;;;6.69;100.00;97951.50;5066638;28;20040;-67
2022/12/29 10:04:02;;;;;;;0.50;0.50;;;;;;;6.65;100.00;97955.03;5066774;28;20082;-67
2022/12/29 10:06:45;;;;;;;0.50;0.50;;;;;;;6.57;100.00;97934.66;5065310;28;20021;-69
2022/12/29 10:09:17;;;;;;;;;;;;;;;6.65;100.00;97950.75;5067053;28;20029;-66
2022/12/29 10:11:48;;;;;;;;;;;;;;;6.63;100.00;97960.25;5066769;28;19908;-68
2022/12/29 10:14:22;;;;;;;0.50;0.50;;;;;;;6.60;100.00;97972.41;5066486;28;19992;-68
2022/12/29 10:16:59;;;;;;;0.50;0.50;;;;;;;6.57;100.00;97965.59;5066401;28;20021;-67
2022/12/29 10:19:51;;;;;;;0.40;0.40;;;;;;;6.54;100.00;97955.38;5065299;28;20021;-66
2022/12/29 10:22:19;;;;;;;0.50;0.50;;;;;;;6.53;100.00;97975.16;5066215;28;20059;-67
2022/12/29 10:24:48;;;;;;;0.50;0.50;;;;;;;6.51;100.00;97974.38;5066858;28;20010;-68
2022/12/29 10:27:16;;;;;;;0.40;0.40;;;;;;;6.52;100.00;97952.00;5066496;28;20025;-67
2022/12/29 10:29:51;;;;;;;0.50;0.50;;;;;;;6.51;100.00;97976.09;5065114;28;20025;-67
2022/12/29 10:32:26;;;;;;;0.50;0.50;;;;;;;6.50;100.00;97969.28;5066048;28;20477;-67
2022/12/29 10:34:58;;;;;;;0.50;0.50;;;;;;;6.47;100.00;97959.06;5063772;28;20029;-68
2022/12/29 10:37:39;;;;;;;0.60;0.60;;;;;;;6.53;100.00;97961.44;5064919;28;20241;-68
2022/12/29 10:40:18;;;;;;;0.40;0.40;;;;;;;6.55;100.00;97967.41;5066097;28;20033;-68
2022/12/29 10:42:50;;;;;;;0.40;0.40;;;;;;;6.54;100.00;97960.53;5065924;28;20078;-68
2022/12/29 10:45:17;;;;;;;;;;;;;;;6.61;100.00;97966.34;5066346;28;20075;-68
2022/12/29 10:47:59;;;;;;;0.50;0.50;;;;;;;6.59;100.00;97968.13;5065959;28;19919;-69
2022/12/29 10:50:28;;;;;;;0.40;0.40;;;;;;;6.59;100.00;97966.41;5064570;28;20092;-68
2022/12/29 10:52:55;;;;;;;0.50;0.50;;;;;;;6.57;100.00;97963.03;5066003;28;20021;-67
2022/12/29 10:55:35;;;;;;;0.40;0.40;;;;;;;6.56;100.00;97961.34;5065822;28;20029;-68
2022/12/29 10:58:04;;;;;;;0.50;0.50;;;;;;;6.55;100.00;97965.66;5065974;28;20103;-68
2022/12/29 11:00:32;;;;;;;0.45;0.45;;;;;;;6.54;100.00;97963.13;5065550;28;20049;-67
2022/12/29 11:03:20;;;;;;;0.45;0.45;;;;;;;6.51;100.00;97965.78;5065604;28;20085;-67
2022/12/29 11:05:48;;;;;;;0.50;0.50;;;;;;;6.49;100.00;97965.00;5065520;28;20085;-66
2022/12/29 11:08:18;;;;;;;0.40;0.40;;;;;;;6.39;100.00;97954.97;5065553;28;20056;-66
2022/12/29 11:10:46;;;;;;;0.50;0.50;;;;;;;6.48;100.00;97951.28;5065423;28;20031;-66
2022/12/29 11:13:24;;;;;;;0.50;0.50;;;;;;;6.48;100.00;97959.00;5065368;28;20025;-66
2022/12/29 11:15:50;;;;;;;0.50;0.50;;;;;;;6.50;100.00;97969.28;5065186;28;20028;-66
2022/12/29 11:18:27;;;;;;;0.50;0.50;;;;;;;6.53;100.00;97967.44;5065509;28;20449;-66
2022/12/29 11:20:59;;;;;;;0.50;0.50;;;;;;;6.55;100.00;97968.22;5065176;28;20447;-67
2022/12/29 11:23:31;;;;;;;0.60;0.60;;;;;;;6.57;100.00;97932.09;5063949;28;20021;-67
2022/12/29 11:26:10;;;;;;;0.50;0.50;;;;;;;6.58;100.00;97951.84;5065269;28;20039;-66
2022/12/29 11:28:40;;;;;;;0.50;0.50;;;;;;;6.62;100.00;97974.03;5065274;28;20048;-65
2022/12/29 11:31:07;;;;;;;0.50;0.50;;;;;;;6.63;100.00;97975.72;5064939;28;20029;-65
2022/12/29 11:33:36;;;;;;;0.50;0.50;;;;;;;6.58;100.00;97931.22;5064890;28;20474;-65
2022/12/29 11:36:10;;;;;;;0.40;0.40;;;;;;;6.64;100.00;97964.53;5064866;28;20059;-65
2022/12/29 11:38:40;;;;;;;0.50;0.50;;;;;;;6.64;100.00;97946.50;5063829;28;20456;-65
2022/12/29 11:41:09;;;;;;;0.50;0.50;;;;;;;6.64;100.00;97961.97;5065028;28;20497;-66
2022/12/29 11:43:41;;;;;;;0.50;0.50;;;;;;;6.62;100.00;97958.56;5064952;28;20472;-66
2022/12/29 11:46:14;;;;;;;;;;;;;;;6.65;100.00;97967.94;5064864;28;20400;-66
2022/12/29 11:48:40;;;;;;;;;;;;;;;6.65;100.00;97965.34;5065151;28;19943;-66
2022/12/29 11:51:06;;;;;;;0.47;0.47;;;;;;;6.63;100.00;97965.41;5064754;28;20020;-66
2022/12/29 11:53:38;;;;;;;0.40;0.40;;;;;;;6.63;100.00;97957.66;5063417;28;20195;-66
2022/12/29 11:56:14;;;;;;;0.50;0.50;;;;;;;6.61;100.00;97961.19;5064750;28;20089;-64
2022/12/29 11:58:40;;;;;;;0.40;0.40;;;;;;;6.57;100.00;97957.88;5064740;28;20037;-65
2022/12/29 12:01:25;;;;;;;0.40;0.40;;;;;;;6.58;100.00;97951.84;5064476;28;20350;-65
2022/12/29 12:04:18;;;;;;;0.50;0.50;;;;;;;6.57;100.00;97955.28;5063235;28;20025;-65
2022/12/29 12:07:07;;;;;;;0.50;0.50;;;;;;;6.51;100.00;97966.66;5064579;28;20029;-66
2022/12/29 12:09:36;;;;;;;0.50;0.50;;;;;;;6.43;100.00;97948.84;5060308;28;20036;-65
2022/12/29 12:12:04;;;;;;;0.40;0.40;;;;;;;6.48;100.00;97968.47;5064440;28;20524;-66
2022/12/29 12:14:45;;;;;;;0.50;0.50;;;;;;;6.42;100.00;97966.94;5064434;28;20039;-67
2022/12/29 12:17:16;;;;;;;0.50;0.50;;;;;;;6.33;100.00;97957.75;5064287;28;20051;-68
2022/12/29 12:19:54;;;;;;;1.05;1.05;;;;;;;6.34;100.00;97969.75;5064293;28;20029;-67
2022/12/29 12:22:31;;;;;;;0.50;0.50;;;;;;;6.41;100.00;97958.34;5064390;28;20031;-68